sensor_id;sensor_type;location;lat;lon;timestamp;pressure;altitude;pressure_sealevel;temperature;humidity
33506;BME280;19843;51.040;13.782;2024-03-08T00:02:25;100957.38;;;4.99;60.65
33506;BME280;19843;51.040;13.782;2024-03-08T00:04:52;100963.25;;;4.87;60.80
33506;BME280;19843;51.040;13.782;2024-03-08T00:07:20;100956.50;;;4.98;60.77
33506;BME280;19843;51.040;13.782;2024-03-08T00:09:47;100962.91;;;4.94;61.48
33506;BME280;19843;51.040;13.782;2024-03-08T00:12:15;100952.31;;;4.72;61.90
33506;BME280;19843;51.040;13.782;2024-03-08T00:14:44;100950.16;;;4.24;63.03
33506;BME280;19843;51.040;13.782;2024-03-08T00:17:11;100952.34;;;4.27;63.04
33506;BME280;19843;51.040;13.782;2024-03-08T00:19:38;100947.13;;;4.21;63.16
33506;BME280;19843;51.040;13.782;2024-03-08T00:22:07;100956.47;;;4.30;63.30
33506;BME280;19843;51.040;13.782;2024-03-08T00:24:35;100957.84;;;4.32;63.18
33506;BME280;19843;51.040;13.782;2024-03-08T00:27:04;100957.09;;;4.17;63.79
33506;BME280;19843;51.040;13.782;2024-03-08T00:29:32;100956.84;;;4.13;63.76
33506;BME280;19843;51.040;13.782;2024-03-08T00:32:01;100956.56;;;4.15;63.92
33506;BME280;19843;51.040;13.782;2024-03-08T00:34:29;100951.75;;;4.30;63.47
33506;BME280;19843;51.040;13.782;2024-03-08T00:36:57;100953.47;;;4.21;63.70
33506;BME280;19843;51.040;13.782;2024-03-08T00:39:25;100952.72;;;4.10;63.95
33506;BME280;19843;51.040;13.782;2024-03-08T00:41:53;100953.84;;;4.04;64.18
33506;BME280;19843;51.040;13.782;2024-03-08T00:44:20;100954.47;;;3.86;64.82
33506;BME280;19843;51.040;13.782;2024-03-08T00:46:47;100954.72;;;3.95;64.92
33506;BME280;19843;51.040;13.782;2024-03-08T00:49:20;100947.53;;;3.99;64.99
33506;BME280;19843;51.040;13.782;2024-03-08T00:51:49;100954.13;;;3.98;64.87
33506;BME280;19843;51.040;13.782;2024-03-08T00:54:16;100946.19;;;3.86;65.39
33506;BME280;19843;51.040;13.782;2024-03-08T00:56:44;100947.56;;;3.83;65.15
33506;BME280;19843;51.040;13.782;2024-03-08T00:59:12;100946.16;;;3.91;65.19
33506;BME280;19843;51.040;13.782;2024-03-08T01:01:40;100935.16;;;3.81;65.00
33506;BME280;19843;51.040;13.782;2024-03-08T01:04:08;100946.53;;;3.69;65.74
33506;BME280;19843;51.040;13.782;2024-03-08T01:06:36;100937.13;;;3.65;66.15
33506;BME280;19843;51.040;13.782;2024-03-08T01:09:04;100938.25;;;3.64;66.54
33506;BME280;19843;51.040;13.782;2024-03-08T01:11:33;100945.16;;;3.67;66.88
33506;BME280;19843;51.040;13.782;2024-03-08T01:14:01;100947.63;;;3.68;66.91
33506;BME280;19843;51.040;13.782;2024-03-08T01:16:28;100933.31;;;3.61;66.92
33506;BME280;19843;51.040;13.782;2024-03-08T01:18:56;100937.19;;;3.50;67.29
33506;BME280;19843;51.040;13.782;2024-03-08T01:21:23;100933.94;;;3.27;67.84
33506;BME280;19843;51.040;13.782;2024-03-08T01:23:52;100925.88;;;3.46;67.32
33506;BME280;19843;51.040;13.782;2024-03-08T01:26:20;100932.53;;;3.35;67.91
33506;BME280;19843;51.040;13.782;2024-03-08T01:28:48;100927.84;;;3.36;67.83
33506;BME280;19843;51.040;13.782;2024-03-08T01:31:16;100918.22;;;3.23;67.88
33506;BME280;19843;51.040;13.782;2024-03-08T01:33:43;100914.63;;;3.27;67.79
33506;BME280;19843;51.040;13.782;2024-03-08T01:36:11;100903.91;;;3.05;68.33
33506;BME280;19843;51.040;13.782;2024-03-08T01:38:42;100907.75;;;3.15;68.02
33506;BME280;19843;51.040;13.782;2024-03-08T01:41:10;100901.16;;;3.05;68.23
33506;BME280;19843;51.040;13.782;2024-03-08T01:43:39;100903.06;;;3.15;68.70
33506;BME280;19843;51.040;13.782;2024-03-08T01:46:07;100901.16;;;3.11;68.38
33506;BME280;19843;51.040;13.782;2024-03-08T01:48:36;100895.06;;;3.03;68.71
33506;BME280;19843;51.040;13.782;2024-03-08T01:51:04;100887.38;;;2.95;68.87
33506;BME280;19843;51.040;13.782;2024-03-08T01:53:32;100887.91;;;3.02;68.67
33506;BME280;19843;51.040;13.782;2024-03-08T01:56:00;100882.69;;;3.01;69.16
33506;BME280;19843;51.040;13.782;2024-03-08T01:58:31;100885.72;;;2.94;69.49
33506;BME280;19843;51.040;13.782;2024-03-08T02:01:01;100883.25;;;2.82;69.60
33506;BME280;19843;51.040;13.782;2024-03-08T02:03:29;100887.09;;;2.92;68.91
33506;BME280;19843;51.040;13.782;2024-03-08T02:05:57;100882.44;;;2.82;68.83
33506;BME280;19843;51.040;13.782;2024-03-08T02:08:26;100889.03;;;2.91;68.80
33506;BME280;19843;51.040;13.782;2024-03-08T02:10:53;100890.97;;;2.40;70.78
33506;BME280;19843;51.040;13.782;2024-03-08T02:13:21;100888.22;;;2.40;71.62
33506;BME280;19843;51.040;13.782;2024-03-08T02:15:54;100888.78;;;2.57;70.67
33506;BME280;19843;51.040;13.782;2024-03-08T02:18:22;100879.41;;;2.73;70.31
33506;BME280;19843;51.040;13.782;2024-03-08T02:20:52;100880.50;;;2.77;70.07
33506;BME280;19843;51.040;13.782;2024-03-08T02:23:20;100877.19;;;2.80;69.45
33506;BME280;19843;51.040;13.782;2024-03-08T02:25:48;100872.50;;;2.86;70.11
33506;BME280;19843;51.040;13.782;2024-03-08T02:28:16;100865.09;;;2.61;71.16
33506;BME280;19843;51.040;13.782;2024-03-08T02:30:45;100860.38;;;2.77;70.89
33506;BME280;19843;51.040;13.782;2024-03-08T02:33:14;100859.56;;;2.66;70.51
33506;BME280;19843;51.040;13.782;2024-03-08T02:35:43;100868.63;;;2.87;70.34
33506;BME280;19843;51.040;13.782;2024-03-08T02:38:15;100859.53;;;2.87;70.60
33506;BME280;19843;51.040;13.782;2024-03-08T02:40:43;100865.59;;;2.83;71.38
33506;BME280;19843;51.040;13.782;2024-03-08T02:43:11;100862.31;;;2.66;71.16
33506;BME280;19843;51.040;13.782;2024-03-08T02:45:38;100864.50;;;2.74;70.82
33506;BME280;19843;51.040;13.782;2024-03-08T02:48:06;100867.28;;;2.69;71.02
33506;BME280;19843;51.040;13.782;2024-03-08T02:50:34;100859.00;;;2.54;71.27
33506;BME280;19843;51.040;13.782;2024-03-08T02:53:03;100861.75;;;2.69;71.56
33506;BME280;19843;51.040;13.782;2024-03-08T02:55:33;100862.88;;;2.68;70.83
33506;BME280;19843;51.040;13.782;2024-03-08T02:58:02;100866.72;;;2.82;70.21
33506;BME280;19843;51.040;13.782;2024-03-08T03:00:30;100863.13;;;2.41;72.57
33506;BME280;19843;51.040;13.782;2024-03-08T03:02:59;100855.13;;;2.60;71.73
33506;BME280;19843;51.040;13.782;2024-03-08T03:05:30;100866.44;;;2.64;71.18
33506;BME280;19843;51.040;13.782;2024-03-08T03:07:57;100862.31;;;2.71;70.69
33506;BME280;19843;51.040;13.782;2024-03-08T03:10:25;100858.47;;;2.57;71.53
33506;BME280;19843;51.040;13.782;2024-03-08T03:12:54;100853.50;;;2.59;71.89
33506;BME280;19843;51.040;13.782;2024-03-08T03:15:21;100850.19;;;2.62;71.34
33506;BME280;19843;51.040;13.782;2024-03-08T03:17:53;100856.53;;;2.73;71.10
33506;BME280;19843;51.040;13.782;2024-03-08T03:20:21;100850.75;;;2.59;71.95
33506;BME280;19843;51.040;13.782;2024-03-08T03:22:53;100849.63;;;2.45;72.04
33506;BME280;19843;51.040;13.782;2024-03-08T03:25:22;100843.84;;;2.72;71.50
33506;BME280;19843;51.040;13.782;2024-03-08T03:27:53;100846.03;;;2.65;71.52
33506;BME280;19843;51.040;13.782;2024-03-08T03:30:23;100846.59;;;2.05;72.56
33506;BME280;19843;51.040;13.782;2024-03-08T03:32:53;100844.38;;;2.18;72.79
33506;BME280;19843;51.040;13.782;2024-03-08T03:35:21;100849.91;;;2.59;71.45
33506;BME280;19843;51.040;13.782;2024-03-08T03:37:49;100845.78;;;2.36;72.42
33506;BME280;19843;51.040;13.782;2024-03-08T03:40:28;100845.25;;;2.39;72.26
33506;BME280;19843;51.040;13.782;2024-03-08T03:42:57;100843.03;;;2.46;72.78
33506;BME280;19843;51.040;13.782;2024-03-08T03:45:24;100841.66;;;2.33;72.46
33506;BME280;19843;51.040;13.782;2024-03-08T03:47:52;100847.91;;;1.83;73.88
33506;BME280;19843;51.040;13.782;2024-03-08T03:50:20;100843.31;;;2.29;73.22
33506;BME280;19843;51.040;13.782;2024-03-08T03:52:48;100849.63;;;2.45;72.67
33506;BME280;19843;51.040;13.782;2024-03-08T03:55:15;100844.41;;;2.38;72.33
33506;BME280;19843;51.040;13.782;2024-03-08T03:57:44;100828.97;;;2.12;71.92
33506;BME280;19843;51.040;13.782;2024-03-08T04:00:13;100835.88;;;2.14;73.10
33506;BME280;19843;51.040;13.782;2024-03-08T04:02:41;100839.66;;;1.83;73.68
33506;BME280;19843;51.040;13.782;2024-03-08T04:05:10;100831.16;;;2.04;73.33
33506;BME280;19843;51.040;13.782;2024-03-08T04:07:38;100834.22;;;2.23;72.89
33506;BME280;19843;51.040;13.782;2024-03-08T04:10:08;100831.16;;;2.45;71.78
33506;BME280;19843;51.040;13.782;2024-03-08T04:12:36;100830.59;;;2.08;73.39
33506;BME280;19843;51.040;13.782;2024-03-08T04:15:04;100832.25;;;2.03;73.40
33506;BME280;19843;51.040;13.782;2024-03-08T04:17:35;100828.63;;;1.77;75.45
33506;BME280;19843;51.040;13.782;2024-03-08T04:20:04;100826.47;;;2.00;75.30
33506;BME280;19843;51.040;13.782;2024-03-08T04:22:36;100826.72;;;1.93;74.38
33506;BME280;19843;51.040;13.782;2024-03-08T04:25:04;100828.44;;;2.15;73.75
33506;BME280;19843;51.040;13.782;2024-03-08T04:27:32;100831.69;;;1.86;74.38
33506;BME280;19843;51.040;13.782;2024-03-08T04:30:00;100841.19;;;1.38;76.28
33506;BME280;19843;51.040;13.782;2024-03-08T04:32:28;100829.44;;;1.68;76.00
33506;BME280;19843;51.040;13.782;2024-03-08T04:34:58;100830.53;;;1.62;76.72
33506;BME280;19843;51.040;13.782;2024-03-08T04:37:27;100823.44;;;1.91;75.61
33506;BME280;19843;51.040;13.782;2024-03-08T04:39:56;100823.31;;;1.50;76.63
33506;BME280;19843;51.040;13.782;2024-03-08T04:42:23;100824.22;;;1.71;76.51
33506;BME280;19843;51.040;13.782;2024-03-08T04:44:51;100819.03;;;2.05;74.99
33506;BME280;19843;51.040;13.782;2024-03-08T04:47:19;100817.34;;;1.89;74.62
33506;BME280;19843;51.040;13.782;2024-03-08T04:49:47;100820.97;;;2.15;73.73
33506;BME280;19843;51.040;13.782;2024-03-08T04:52:17;100823.72;;;1.95;74.54
33506;BME280;19843;51.040;13.782;2024-03-08T04:54:45;100818.38;;;1.52;75.91
33506;BME280;19843;51.040;13.782;2024-03-08T04:57:12;100824.78;;;1.89;74.99
33506;BME280;19843;51.040;13.782;2024-03-08T04:59:40;100817.41;;;2.10;74.37
33506;BME280;19843;51.040;13.782;2024-03-08T05:02:07;100810.78;;;2.11;73.39
33506;BME280;19843;51.040;13.782;2024-03-08T05:04:35;100817.13;;;2.01;73.92
33506;BME280;19843;51.040;13.782;2024-03-08T05:07:02;100801.13;;;2.13;73.57
33506;BME280;19843;51.040;13.782;2024-03-08T05:09:31;100809.97;;;2.20;73.71
33506;BME280;19843;51.040;13.782;2024-03-08T05:12:00;100807.16;;;1.90;73.78
33506;BME280;19843;51.040;13.782;2024-03-08T05:14:28;100806.31;;;1.64;74.33
33506;BME280;19843;51.040;13.782;2024-03-08T05:16:55;100804.44;;;1.95;73.69
33506;BME280;19843;51.040;13.782;2024-03-08T05:19:23;100806.38;;;2.04;73.12
33506;BME280;19843;51.040;13.782;2024-03-08T05:21:50;100805.81;;;2.02;73.27
33506;BME280;19843;51.040;13.782;2024-03-08T05:24:18;100806.91;;;1.86;72.77
33506;BME280;19843;51.040;13.782;2024-03-08T05:26:47;100812.13;;;1.93;74.11
33506;BME280;19843;51.040;13.782;2024-03-08T05:29:15;100807.13;;;1.69;73.90
33506;BME280;19843;51.040;13.782;2024-03-08T05:31:46;100806.63;;;1.77;73.61
33506;BME280;19843;51.040;13.782;2024-03-08T05:34:14;100802.22;;;1.76;73.95
33506;BME280;19843;51.040;13.782;2024-03-08T05:36:42;100803.81;;;1.52;75.17
33506;BME280;19843;51.040;13.782;2024-03-08T05:39:11;100799.16;;;1.73;74.08
33506;BME280;19843;51.040;13.782;2024-03-08T05:41:40;100804.69;;;1.73;73.54
33506;BME280;19843;51.040;13.782;2024-03-08T05:44:09;100804.84;;;1.36;75.07
33506;BME280;19843;51.040;13.782;2024-03-08T05:46:37;100797.22;;;1.63;75.61
33506;BME280;19843;51.040;13.782;2024-03-08T05:49:05;100799.47;;;1.92;74.27
33506;BME280;19843;51.040;13.782;2024-03-08T05:51:33;100799.72;;;1.85;73.69
33506;BME280;19843;51.040;13.782;2024-03-08T05:54:01;100795.00;;;1.60;74.42
33506;BME280;19843;51.040;13.782;2024-03-08T05:56:29;100790.63;;;1.85;73.56
33506;BME280;19843;51.040;13.782;2024-03-08T05:58:57;100795.91;;;2.12;72.84
33506;BME280;19843;51.040;13.782;2024-03-08T06:01:26;100801.69;;;2.15;71.94
33506;BME280;19843;51.040;13.782;2024-03-08T06:03:54;100792.63;;;2.15;73.02
33506;BME280;19843;51.040;13.782;2024-03-08T06:06:23;100803.06;;;2.23;72.49
33506;BME280;19843;51.040;13.782;2024-03-08T06:08:51;100798.66;;;2.27;71.97
33506;BME280;19843;51.040;13.782;2024-03-08T06:11:20;100806.09;;;2.57;71.90
33506;BME280;19843;51.040;13.782;2024-03-08T06:13:48;100805.25;;;2.46;71.82
33506;BME280;19843;51.040;13.782;2024-03-08T06:16:16;100804.72;;;2.54;71.65
33506;BME280;19843;51.040;13.782;2024-03-08T06:18:44;100808.00;;;2.51;71.73
33506;BME280;19843;51.040;13.782;2024-03-08T06:21:13;100810.78;;;2.41;71.94
33506;BME280;19843;51.040;13.782;2024-03-08T06:23:42;100804.16;;;2.63;72.44
33506;BME280;19843;51.040;13.782;2024-03-08T06:26:10;100807.19;;;2.66;71.63
33506;BME280;19843;51.040;13.782;2024-03-08T06:28:37;100791.19;;;2.63;72.67
33506;BME280;19843;51.040;13.782;2024-03-08T06:31:05;100798.84;;;2.92;71.11
33506;BME280;19843;51.040;13.782;2024-03-08T06:33:33;100797.78;;;2.77;72.50
33506;BME280;19843;51.040;13.782;2024-03-08T06:36:03;100801.56;;;3.07;70.84
33506;BME280;19843;51.040;13.782;2024-03-08T06:38:31;100799.16;;;2.70;72.58
33506;BME280;19843;51.040;13.782;2024-03-08T06:40:59;100782.66;;;2.54;72.91
33506;BME280;19843;51.040;13.782;2024-03-08T06:43:29;100793.03;;;2.98;71.27
33506;BME280;19843;51.040;13.782;2024-03-08T06:46:00;100794.13;;;2.97;70.63
33506;BME280;19843;51.040;13.782;2024-03-08T06:48:27;100797.78;;;2.72;72.71
33506;BME280;19843;51.040;13.782;2024-03-08T06:50:56;100782.00;;;2.98;71.41
33506;BME280;19843;51.040;13.782;2024-03-08T06:53:24;100781.75;;;2.95;72.07
33506;BME280;19843;51.040;13.782;2024-03-08T06:55:54;100781.00;;;3.44;70.30
33506;BME280;19843;51.040;13.782;2024-03-08T06:58:24;100787.19;;;3.70;69.16
33506;BME280;19843;51.040;13.782;2024-03-08T07:00:51;100781.47;;;3.56;69.71
33506;BME280;19843;51.040;13.782;2024-03-08T07:03:19;100776.25;;;3.49;69.69
33506;BME280;19843;51.040;13.782;2024-03-08T07:05:48;100781.00;;;3.39;70.54
33506;BME280;19843;51.040;13.782;2024-03-08T07:08:16;100778.09;;;4.08;68.92
33506;BME280;19843;51.040;13.782;2024-03-08T07:10:44;100776.69;;;4.11;67.20
33506;BME280;19843;51.040;13.782;2024-03-08T07:13:12;100766.91;;;3.90;67.93
33506;BME280;19843;51.040;13.782;2024-03-08T07:15:39;100765.09;;;4.09;67.89
33506;BME280;19843;51.040;13.782;2024-03-08T07:18:07;100774.72;;;4.46;67.04
33506;BME280;19843;51.040;13.782;2024-03-08T07:20:35;100772.22;;;4.73;65.78
33506;BME280;19843;51.040;13.782;2024-03-08T07:23:03;100773.09;;;3.71;68.10
33506;BME280;19843;51.040;13.782;2024-03-08T07:25:31;100770.66;;;4.67;66.26
33506;BME280;19843;51.040;13.782;2024-03-08T07:27:59;100768.34;;;4.74;65.20
33506;BME280;19843;51.040;13.782;2024-03-08T07:30:27;100770.22;;;5.03;64.90
33506;BME280;19843;51.040;13.782;2024-03-08T07:33:12;100766.56;;;5.31;64.51
33506;BME280;19843;51.040;13.782;2024-03-08T07:35:41;100755.00;;;5.48;63.17
33506;BME280;19843;51.040;13.782;2024-03-08T07:38:10;100755.91;;;5.81;61.78
33506;BME280;19843;51.040;13.782;2024-03-08T07:40:39;100762.13;;;6.11;61.54
33506;BME280;19843;51.040;13.782;2024-03-08T07:43:08;100758.09;;;5.84;61.15
33506;BME280;19843;51.040;13.782;2024-03-08T07:45:36;100755.59;;;5.83;61.90
33506;BME280;19843;51.040;13.782;2024-03-08T07:48:05;100750.50;;;6.09;61.66
33506;BME280;19843;51.040;13.782;2024-03-08T07:50:36;100752.81;;;5.64;61.83
33506;BME280;19843;51.040;13.782;2024-03-08T07:53:03;100748.34;;;6.38;60.55
33506;BME280;19843;51.040;13.782;2024-03-08T07:55:32;100747.28;;;6.95;58.84
33506;BME280;19843;51.040;13.782;2024-03-08T07:58:01;100746.47;;;7.08;58.52
33506;BME280;19843;51.040;13.782;2024-03-08T08:00:30;100747.06;;;6.63;58.77
33506;BME280;19843;51.040;13.782;2024-03-08T08:02:58;100736.06;;;7.27;57.54
33506;BME280;19843;51.040;13.782;2024-03-08T08:05:26;100742.03;;;6.93;58.51
33506;BME280;19843;51.040;13.782;2024-03-08T08:07:54;100743.06;;;6.83;59.03
33506;BME280;19843;51.040;13.782;2024-03-08T08:10:22;100745.34;;;7.09;57.67
33506;BME280;19843;51.040;13.782;2024-03-08T08:12:53;100744.25;;;7.60;56.83
33506;BME280;19843;51.040;13.782;2024-03-08T08:15:20;100733.22;;;7.91;55.98
33506;BME280;19843;51.040;13.782;2024-03-08T08:17:50;100732.69;;;7.66;56.18
33506;BME280;19843;51.040;13.782;2024-03-08T08:20:18;100732.59;;;7.08;56.88
33506;BME280;19843;51.040;13.782;2024-03-08T08:22:45;100723.91;;;7.37;56.27
33506;BME280;19843;51.040;13.782;2024-03-08T08:25:14;100722.22;;;7.86;55.38
33506;BME280;19843;51.040;13.782;2024-03-08T08:27:42;100715.56;;;7.51;56.67
33506;BME280;19843;51.040;13.782;2024-03-08T08:30:10;100724.00;;;8.49;53.42
33506;BME280;19843;51.040;13.782;2024-03-08T08:32:38;100715.56;;;9.11;52.27
33506;BME280;19843;51.040;13.782;2024-03-08T08:35:08;100712.59;;;8.99;52.75
33506;BME280;19843;51.040;13.782;2024-03-08T08:37:39;100723.47;;;9.18;54.04
33506;BME280;19843;51.040;13.782;2024-03-08T08:40:07;100713.75;;;8.98;52.84
33506;BME280;19843;51.040;13.782;2024-03-08T08:42:37;100713.56;;;9.60;51.13
33506;BME280;19843;51.040;13.782;2024-03-08T08:45:05;100715.72;;;9.06;50.79
33506;BME280;19843;51.040;13.782;2024-03-08T08:47:42;100700.91;;;9.71;49.37
33506;BME280;19843;51.040;13.782;2024-03-08T08:50:13;100692.56;;;9.80;49.54
33506;BME280;19843;51.040;13.782;2024-03-08T08:52:42;100691.41;;;9.81;49.44
33506;BME280;19843;51.040;13.782;2024-03-08T08:55:10;100678.09;;;10.13;48.74
33506;BME280;19843;51.040;13.782;2024-03-08T08:57:41;100682.69;;;10.00;48.73
33506;BME280;19843;51.040;13.782;2024-03-08T09:00:09;100681.53;;;9.23;49.59
33506;BME280;19843;51.040;13.782;2024-03-08T09:02:41;100682.03;;;9.16;50.28
33506;BME280;19843;51.040;13.782;2024-03-08T09:05:09;100671.06;;;9.63;50.10
33506;BME280;19843;51.040;13.782;2024-03-08T09:07:39;100673.78;;;9.11;50.85
33506;BME280;19843;51.040;13.782;2024-03-08T09:10:07;100663.69;;;9.67;50.52
33506;BME280;19843;51.040;13.782;2024-03-08T09:12:43;100661.88;;;9.89;48.55
33506;BME280;19843;51.040;13.782;2024-03-08T09:15:11;100666.44;;;10.11;48.38
33506;BME280;19843;51.040;13.782;2024-03-08T09:17:39;100677.41;;;10.42;47.78
33506;BME280;19843;51.040;13.782;2024-03-08T09:20:09;100662.56;;;10.97;46.97
33506;BME280;19843;51.040;13.782;2024-03-08T09:22:43;100663.41;;;10.50;47.54
33506;BME280;19843;51.040;13.782;2024-03-08T09:25:14;100654.03;;;9.73;48.52
33506;BME280;19843;51.040;13.782;2024-03-08T09:27:41;100649.53;;;11.01;46.83
33506;BME280;19843;51.040;13.782;2024-03-08T09:30:09;100645.81;;;10.59;47.24
33506;BME280;19843;51.040;13.782;2024-03-08T09:32:39;100645.91;;;10.15;47.65
33506;BME280;19843;51.040;13.782;2024-03-08T09:35:07;100638.69;;;10.70;47.38
33506;BME280;19843;51.040;13.782;2024-03-08T09:37:35;100641.38;;;10.58;47.80
33506;BME280;19843;51.040;13.782;2024-03-08T09:40:06;100634.53;;;11.06;46.51
33506;BME280;19843;51.040;13.782;2024-03-08T09:42:36;100626.19;;;11.26;45.42
33506;BME280;19843;51.040;13.782;2024-03-08T09:45:08;100630.31;;;10.70;46.50
33506;BME280;19843;51.040;13.782;2024-03-08T09:47:39;100621.38;;;10.85;45.99
33506;BME280;19843;51.040;13.782;2024-03-08T09:50:08;100618.91;;;10.54;47.08
33506;BME280;19843;51.040;13.782;2024-03-08T09:52:36;100628.03;;;11.43;45.27
33506;BME280;19843;51.040;13.782;2024-03-08T09:55:06;100624.22;;;11.48;44.29
33506;BME280;19843;51.040;13.782;2024-03-08T09:57:36;100615.34;;;11.88;44.70
33506;BME280;19843;51.040;13.782;2024-03-08T10:00:05;100618.00;;;11.63;44.01
33506;BME280;19843;51.040;13.782;2024-03-08T10:02:45;100623.66;;;10.54;45.32
33506;BME280;19843;51.040;13.782;2024-03-08T10:05:12;100620.22;;;11.91;43.94
33506;BME280;19843;51.040;13.782;2024-03-08T10:07:40;100616.41;;;11.95;44.14
33506;BME280;19843;51.040;13.782;2024-03-08T10:10:09;100613.72;;;12.44;43.36
33506;BME280;19843;51.040;13.782;2024-03-08T10:12:38;100611.50;;;11.71;43.06
33506;BME280;19843;51.040;13.782;2024-03-08T10:15:07;100606.44;;;12.07;43.30
33506;BME280;19843;51.040;13.782;2024-03-08T10:17:35;100605.00;;;12.58;42.69
33506;BME280;19843;51.040;13.782;2024-03-08T10:20:03;100606.63;;;10.76;45.66
33506;BME280;19843;51.040;13.782;2024-03-08T10:22:41;100596.66;;;11.38;44.59
33506;BME280;19843;51.040;13.782;2024-03-08T10:25:24;100593.75;;;11.55;44.62
33506;BME280;19843;51.040;13.782;2024-03-08T10:27:52;100591.88;;;12.25;43.72
33506;BME280;19843;51.040;13.782;2024-03-08T10:30:19;100588.00;;;12.18;43.57
33506;BME280;19843;51.040;13.782;2024-03-08T10:32:48;100589.59;;;11.94;44.13
33506;BME280;19843;51.040;13.782;2024-03-08T10:35:15;100585.13;;;11.60;44.25
33506;BME280;19843;51.040;13.782;2024-03-08T10:37:45;100582.50;;;12.09;43.63
33506;BME280;19843;51.040;13.782;2024-03-08T10:40:16;100585.66;;;12.20;43.17
33506;BME280;19843;51.040;13.782;2024-03-08T10:42:53;100581.53;;;12.50;43.10
33506;BME280;19843;51.040;13.782;2024-03-08T10:45:31;100568.56;;;12.34;42.88
33506;BME280;19843;51.040;13.782;2024-03-08T10:48:24;100574.75;;;12.27;43.42
33506;BME280;19843;51.040;13.782;2024-03-08T10:51:04;100567.25;;;11.73;43.89
33506;BME280;19843;51.040;13.782;2024-03-08T10:53:33;100570.44;;;11.84;43.82
33506;BME280;19843;51.040;13.782;2024-03-08T10:56:04;100567.03;;;11.45;44.56
33506;BME280;19843;51.040;13.782;2024-03-08T10:58:35;100572.06;;;12.30;43.39
33506;BME280;19843;51.040;13.782;2024-03-08T11:01:04;100560.59;;;12.97;42.40
33506;BME280;19843;51.040;13.782;2024-03-08T11:03:45;100564.97;;;12.45;42.73
33506;BME280;19843;51.040;13.782;2024-03-08T11:06:16;100562.63;;;12.35;42.08
33506;BME280;19843;51.040;13.782;2024-03-08T11:08:45;100548.03;;;12.54;42.76
33506;BME280;19843;51.040;13.782;2024-03-08T11:11:29;100547.44;;;12.61;42.83
33506;BME280;19843;51.040;13.782;2024-03-08T11:14:03;100555.44;;;11.89;43.59
33506;BME280;19843;51.040;13.782;2024-03-08T11:16:39;100545.09;;;12.14;43.03
33506;BME280;19843;51.040;13.782;2024-03-08T11:19:24;100540.19;;;11.98;43.10
33506;BME280;19843;51.040;13.782;2024-03-08T11:21:59;100537.06;;;12.12;43.05
33506;BME280;19843;51.040;13.782;2024-03-08T11:24:27;100536.69;;;12.01;43.56
33506;BME280;19843;51.040;13.782;2024-03-08T11:26:57;100524.31;;;12.76;42.62
33506;BME280;19843;51.040;13.782;2024-03-08T11:29:35;100522.88;;;12.94;41.78
33506;BME280;19843;51.040;13.782;2024-03-08T11:32:05;100514.84;;;13.33;42.12
33506;BME280;19843;51.040;13.782;2024-03-08T11:34:32;100510.47;;;13.48;41.05
33506;BME280;19843;51.040;13.782;2024-03-08T11:37:01;100506.19;;;13.38;40.77
33506;BME280;19843;51.040;13.782;2024-03-08T11:39:30;100505.25;;;13.06;41.36
33506;BME280;19843;51.040;13.782;2024-03-08T11:41:58;100510.13;;;12.08;42.42
33506;BME280;19843;51.040;13.782;2024-03-08T11:44:26;100503.50;;;13.01;41.49
33506;BME280;19843;51.040;13.782;2024-03-08T11:46:56;100487.22;;;13.91;40.63
33506;BME280;19843;51.040;13.782;2024-03-08T11:49:23;100485.75;;;14.13;39.92
33506;BME280;19843;51.040;13.782;2024-03-08T11:51:52;100483.66;;;13.78;39.68
33506;BME280;19843;51.040;13.782;2024-03-08T11:54:21;100489.47;;;13.42;40.12
33506;BME280;19843;51.040;13.782;2024-03-08T11:56:51;100473.59;;;13.33;40.45
33506;BME280;19843;51.040;13.782;2024-03-08T11:59:19;100472.81;;;13.77;40.39
33506;BME280;19843;51.040;13.782;2024-03-08T12:01:59;100474.03;;;13.07;40.10
33506;BME280;19843;51.040;13.782;2024-03-08T12:04:28;100463.19;;;14.25;39.29
33506;BME280;19843;51.040;13.782;2024-03-08T12:06:59;100454.97;;;14.17;38.84
33506;BME280;19843;51.040;13.782;2024-03-08T12:09:27;100463.91;;;14.22;38.71
33506;BME280;19843;51.040;13.782;2024-03-08T12:11:54;100454.78;;;13.94;39.88
33506;BME280;19843;51.040;13.782;2024-03-08T12:14:22;100449.47;;;14.55;38.82
33506;BME280;19843;51.040;13.782;2024-03-08T12:16:51;100443.72;;;13.69;39.74
33506;BME280;19843;51.040;13.782;2024-03-08T12:19:20;100455.06;;;13.89;39.21
33506;BME280;19843;51.040;13.782;2024-03-08T12:21:48;100435.53;;;13.32;39.58
33506;BME280;19843;51.040;13.782;2024-03-08T12:24:16;100451.50;;;13.44;39.69
33506;BME280;19843;51.040;13.782;2024-03-08T12:26:46;100443.97;;;14.27;38.86
33506;BME280;19843;51.040;13.782;2024-03-08T12:29:15;100441.22;;;14.47;39.01
33506;BME280;19843;51.040;13.782;2024-03-08T12:31:44;100436.13;;;13.70;39.99
33506;BME280;19843;51.040;13.782;2024-03-08T12:34:12;100436.56;;;14.03;39.21
33506;BME280;19843;51.040;13.782;2024-03-08T12:36:46;100423.84;;;14.41;39.27
33506;BME280;19843;51.040;13.782;2024-03-08T12:39:19;100420.81;;;13.67;39.77
33506;BME280;19843;51.040;13.782;2024-03-08T12:41:49;100414.66;;;13.30;40.14
33506;BME280;19843;51.040;13.782;2024-03-08T12:44:18;100415.63;;;13.22;40.73
33506;BME280;19843;51.040;13.782;2024-03-08T12:46:48;100404.56;;;13.73;40.21
33506;BME280;19843;51.040;13.782;2024-03-08T12:49:19;100404.72;;;13.64;39.33
33506;BME280;19843;51.040;13.782;2024-03-08T12:51:50;100408.88;;;13.54;40.90
33506;BME280;19843;51.040;13.782;2024-03-08T12:54:18;100398.94;;;13.13;40.86
33506;BME280;19843;51.040;13.782;2024-03-08T12:56:49;100399.13;;;13.64;40.67
33506;BME280;19843;51.040;13.782;2024-03-08T12:59:19;100389.47;;;14.13;40.43